Time;durP1;ratioP1;P1;durP2;ratioP2;P2;SDS_P1;SDS_P2;PMS_P1;PMS_P2;Temp;Humidity;BMP_temperature;BMP_pressure;BME280_temperature;BME280_humidity;BME280_pressure;Samples;Min_cycle;Max_cycle;Signal;HPM_P1;HPM_P2
2021/01/12 00:00:32;;;;;;;26.25;11.80;;;1.00;99.90;;;;;;10430211;28;20033;-62
2021/01/12 00:05:33;;;;;;;26.08;11.20;;;1.00;99.90;;;;;;10443242;28;20103;-62
2021/01/12 00:10:35;;;;;;;25.13;11.68;;;0.90;99.90;;;;;;10441912;28;20150;-62
2021/01/12 00:15:36;;;;;;;21.33;11.15;;;1.00;99.90;;;;;;10440682;28;20049;-62
2021/01/12 00:20:37;;;;;;;23.25;10.98;;;0.90;99.90;;;;;;10430544;28;20075;-62
2021/01/12 00:25:39;;;;;;;23.73;11.65;;;0.90;99.90;;;;;;10431673;28;20045;-62
2021/01/12 00:30:40;;;;;;;27.67;11.85;;;0.90;99.90;;;;;;10442450;28;20060;-61
2021/01/12 00:35:41;;;;;;;23.95;10.85;;;1.00;99.90;;;;;;10433948;28;20056;-62
2021/01/12 00:40:42;;;;;;;25.60;12.25;;;1.00;99.90;;;;;;10437114;28;20134;-62
2021/01/12 00:45:44;;;;;;;20.60;9.90;;;1.00;99.90;;;;;;10437848;28;20076;-62
2021/01/12 00:50:45;;;;;;;25.42;11.73;;;1.00;99.90;;;;;;10441804;28;20514;-62
2021/01/12 00:55:46;;;;;;;25.77;13.27;;;0.90;99.90;;;;;;10421426;28;21671;-62
2021/01/12 01:00:47;;;;;;;22.45;10.43;;;0.90;99.90;;;;;;10443269;28;20103;-62
2021/01/12 01:05:48;;;;;;;23.73;10.30;;;1.00;99.90;;;;;;10446614;28;20034;-62
2021/01/12 01:10:49;;;;;;;25.77;11.15;;;0.90;99.90;;;;;;10434306;28;20602;-62
2021/01/12 01:15:51;;;;;;;32.22;14.77;;;0.90;99.90;;;;;;10440585;28;20052;-62
2021/01/12 01:20:52;;;;;;;32.75;12.82;;;0.60;99.90;;;;;;10436339;28;20076;-61
2021/01/12 01:25:53;;;;;;;26.30;13.02;;;0.30;99.90;;;;;;10438686;28;20125;-61
2021/01/12 01:30:54;;;;;;;32.05;13.20;;;0.20;99.90;;;;;;10441299;28;20107;-62
2021/01/12 01:35:56;;;;;;;28.73;13.90;;;0.20;99.90;;;;;;10450424;28;20479;-61
2021/01/12 01:41:00;;;;;;;29.90;13.73;;;0.30;99.90;;;;;;10447333;28;20045;-61
2021/01/12 01:46:03;;;;;;;23.08;11.52;;;0.40;99.90;;;;;;10444607;28;20111;-61
2021/01/12 01:51:06;;;;;;;26.52;11.38;;;0.50;99.90;;;;;;10441007;28;20079;-61
2021/01/12 01:56:08;;;;;;;25.38;10.93;;;0.60;99.90;;;;;;10443571;28;20491;-60
2021/01/12 02:01:10;;;;;;;25.13;11.20;;;0.70;99.90;;;;;;10440135;28;20044;-61
2021/01/12 02:06:19;;;;;;;29.10;11.18;;;0.70;99.90;;;;;;10424895;28;20044;-62
2021/01/12 02:11:23;;;;;;;23.73;11.68;;;0.80;99.90;;;;;;10439797;28;20521;-61
2021/01/12 02:16:27;;;;;;;25.50;11.77;;;0.90;99.90;;;;;;10436828;28;20048;-62
2021/01/12 02:21:30;;;;;;;23.13;10.32;;;0.90;99.90;;;;;;10419964;28;20045;-61
2021/01/12 02:26:31;;;;;;;24.92;11.52;;;0.90;99.90;;;;;;10450580;28;20044;-61
2021/01/12 02:31:33;;;;;;;22.80;11.32;;;0.90;99.90;;;;;;10448662;28;20105;-61
2021/01/12 02:36:36;;;;;;;25.92;12.48;;;1.00;99.90;;;;;;10442575;28;20049;-61
2021/01/12 02:41:37;;;;;;;22.63;10.77;;;1.00;99.90;;;;;;10436653;28;20067;-61
2021/01/12 02:46:39;;;;;;;22.35;10.68;;;1.00;99.90;;;;;;10435886;28;20450;-61
2021/01/12 02:51:40;;;;;;;27.40;12.77;;;1.00;99.90;;;;;;10434049;28;20040;-61
2021/01/12 02:56:41;;;;;;;26.55;10.77;;;1.00;99.90;;;;;;10443912;28;20109;-61
2021/01/12 03:01:42;;;;;;;24.67;12.88;;;1.00;99.90;;;;;;10361688;28;20405;-61
2021/01/12 03:06:44;;;;;;;28.23;12.63;;;1.00;99.90;;;;;;10423808;28;20398;-62
2021/01/12 03:11:52;;;;;;;26.95;13.32;;;1.00;99.90;;;;;;10427626;28;20059;-61
2021/01/12 03:16:54;;;;;;;26.70;12.52;;;1.00;99.90;;;;;;10445002;28;20040;-61
2021/01/12 03:21:56;;;;;;;30.05;13.23;;;1.00;99.90;;;;;;10443145;28;20053;-62
2021/01/12 03:26:57;;;;;;;27.08;13.07;;;1.00;99.90;;;;;;10453678;28;20044;-61
2021/01/12 03:31:58;;;;;;;23.80;11.95;;;1.00;99.90;;;;;;10434093;28;20044;-62
2021/01/12 03:37:00;;;;;;;31.60;12.57;;;1.00;99.90;;;;;;10444374;28;20067;-61
2021/01/12 03:42:01;;;;;;;25.60;12.00;;;0.90;99.90;;;;;;10437712;28;20052;-61
2021/01/12 03:47:02;;;;;;;28.92;12.40;;;0.80;99.90;;;;;;10447065;28;20853;-62
2021/01/12 03:52:04;;;;;;;25.27;11.50;;;0.70;99.90;;;;;;10447503;28;20060;-62
2021/01/12 03:57:11;;;;;;;32.58;11.52;;;0.60;99.90;;;;;;10446429;28;20052;-62
2021/01/12 04:02:12;;;;;;;31.65;13.05;;;0.60;99.90;;;;;;10435750;28;20102;-62
2021/01/12 04:07:13;;;;;;;32.50;14.75;;;0.60;99.90;;;;;;10439344;28;20049;-62
2021/01/12 04:12:14;;;;;;;30.65;13.30;;;0.60;99.90;;;;;;10440166;28;20041;-62
2021/01/12 04:17:16;;;;;;;29.48;13.52;;;0.50;99.90;;;;;;10438894;28;20068;-62
2021/01/12 04:22:17;;;;;;;33.03;12.40;;;0.50;99.90;;;;;;10432222;28;20056;-62
2021/01/12 04:27:18;;;;;;;37.00;13.10;;;0.50;99.90;;;;;;10433788;28;20052;-62
2021/01/12 04:32:19;;;;;;;33.10;14.15;;;0.50;99.90;;;;;;10431052;28;20479;-62
2021/01/12 04:37:20;;;;;;;39.53;15.30;;;0.50;99.90;;;;;;10430208;28;20033;-62
2021/01/12 04:42:21;;;;;;;30.65;12.80;;;0.60;99.90;;;;;;10433496;28;20189;-62
2021/01/12 04:47:23;;;;;;;25.52;10.50;;;0.50;99.90;;;;;;10434030;28;20052;-62
2021/01/12 04:52:24;;;;;;;39.35;13.70;;;0.50;99.90;;;;;;10434239;28;20040;-61
2021/01/12 04:57:25;;;;;;;42.75;13.52;;;0.60;99.90;;;;;;10439237;28;20453;-61
2021/01/12 05:02:27;;;;;;;34.88;14.02;;;0.60;99.90;;;;;;10426917;28;20924;-61
2021/01/12 05:07:28;;;;;;;36.95;13.85;;;0.50;99.90;;;;;;10444173;28;20063;-60
2021/01/12 05:12:30;;;;;;;35.00;13.82;;;0.50;99.90;;;;;;10435504;28;20169;-60
2021/01/12 05:17:35;;;;;;;34.83;13.05;;;0.50;99.90;;;;;;10438875;28;20606;-60
2021/01/12 05:22:40;;;;;;;31.05;11.65;;;0.50;99.90;;;;;;10415767;28;20056;-60
2021/01/12 05:27:41;;;;;;;32.50;12.77;;;0.50;99.90;;;;;;10435243;28;20090;-60
2021/01/12 05:32:45;;;;;;;30.48;12.57;;;0.50;99.90;;;;;;10438818;28;20423;-59
2021/01/12 05:37:47;;;;;;;31.80;13.13;;;0.50;99.90;;;;;;10437313;28;20067;-60
2021/01/12 05:42:48;;;;;;;38.40;12.18;;;0.50;99.90;;;;;;10443202;28;20084;-60
2021/01/12 05:47:55;;;;;;;30.83;10.95;;;0.50;99.90;;;;;;10450764;28;20094;-60
2021/01/12 05:53:06;;;;;;;30.77;12.57;;;0.50;99.90;;;;;;10446576;28;20130;-60
2021/01/12 05:58:19;;;;;;;34.20;11.80;;;0.50;99.90;;;;;;10440114;28;20069;-60
2021/01/12 06:03:24;;;;;;;27.80;10.55;;;0.50;99.90;;;;;;10441877;28;20045;-60
2021/01/12 06:08:27;;;;;;;31.92;12.65;;;0.50;99.90;;;;;;10427016;28;20083;-60
2021/01/12 06:13:33;;;;;;;32.03;11.43;;;0.50;99.90;;;;;;10413955;28;20040;-61
2021/01/12 06:18:49;;;;;;;29.58;9.27;;;0.50;99.90;;;;;;10434708;28;20048;-61
2021/01/12 06:23:56;;;;;;;25.40;10.20;;;0.50;99.90;;;;;;10370575;28;20052;-61
2021/01/12 06:28:57;;;;;;;19.67;7.18;;;0.60;99.90;;;;;;10438556;28;20486;-61
2021/01/12 06:33:58;;;;;;;22.08;9.82;;;0.50;99.90;;;;;;10433103;28;20509;-61
2021/01/12 06:39:01;;;;;;;24.63;9.20;;;0.60;99.90;;;;;;10435352;28;20060;-61
2021/01/12 06:44:19;;;;;;;15.73;7.70;;;0.60;99.90;;;;;;10434170;28;20082;-67
2021/01/12 06:49:23;;;;;;;24.27;9.25;;;0.60;99.90;;;;;;10375579;28;20114;-66
2021/01/12 06:54:40;;;;;;;17.75;7.40;;;0.60;99.90;;;;;;10437584;28;20143;-67
2021/01/12 06:59:46;;;;;;;16.55;6.88;;;0.60;99.90;;;;;;10441013;28;20044;-67
2021/01/12 07:05:05;;;;;;;20.88;8.75;;;0.60;99.90;;;;;;10427502;28;20048;-65
2021/01/12 07:10:11;;;;;;;15.38;6.57;;;0.60;99.90;;;;;;10442005;28;20037;-65
2021/01/12 07:15:18;;;;;;;20.83;7.72;;;0.60;99.90;;;;;;10442185;28;20060;-65
2021/01/12 07:20:27;;;;;;;16.55;6.65;;;0.60;99.90;;;;;;10434079;28;20061;-65
2021/01/12 07:25:29;;;;;;;16.98;7.00;;;0.60;99.90;;;;;;10445968;28;20045;-65
2021/01/12 07:30:32;;;;;;;22.02;7.00;;;0.60;99.90;;;;;;10439062;28;20426;-64
2021/01/12 07:35:35;;;;;;;21.42;7.93;;;0.60;99.90;;;;;;10425620;28;20056;-65
2021/01/12 07:40:37;;;;;;;24.48;9.40;;;0.70;99.90;;;;;;10436314;28;20049;-67
2021/01/12 07:45:39;;;;;;;18.38;5.97;;;0.70;99.90;;;;;;10431282;28;20099;-66
2021/01/12 07:50:45;;;;;;;17.52;6.70;;;0.70;99.90;;;;;;10426874;28;21318;-66
2021/01/12 07:55:47;;;;;;;13.82;4.78;;;0.70;99.90;;;;;;10450044;28;20578;-65
2021/01/12 08:00:49;;;;;;;13.45;5.82;;;0.70;99.90;;;;;;10446545;28;20106;-65
2021/01/12 08:06:07;;;;;;;8.88;4.43;;;0.70;99.90;;;;;;10435427;28;20052;-66
2021/01/12 08:11:09;;;;;;;15.75;5.78;;;0.70;99.90;;;;;;10442053;28;20479;-66
2021/01/12 08:16:12;;;;;;;14.63;5.63;;;0.70;99.90;;;;;;10431434;28;20068;-66
2021/01/12 08:21:13;;;;;;;10.55;4.55;;;0.80;99.90;;;;;;10442454;28;20527;-67
2021/01/12 08:26:14;;;;;;;11.20;4.00;;;0.80;99.90;;;;;;10447773;28;20129;-68
2021/01/12 08:31:16;;;;;;;12.93;4.45;;;0.80;99.90;;;;;;10454318;28;20082;-67
2021/01/12 08:36:22;;;;;;;9.45;4.00;;;0.80;99.90;;;;;;10458430;28;20041;-66
2021/01/12 08:41:24;;;;;;;5.88;2.80;;;0.90;99.90;;;;;;10446587;28;20036;-67
2021/01/12 08:46:29;;;;;;;8.10;3.10;;;0.90;99.90;;;;;;10461763;28;20048;-67
2021/01/12 08:51:32;;;;;;;7.00;2.85;;;0.90;99.90;;;;;;10461097;28;20060;-68
2021/01/12 08:59:33;;;;;;;4.35;1.83;;;1.10;99.90;;;;;;10428091;27;20797;-69
2021/01/12 09:04:34;;;;;;;3.92;1.42;;;1.20;99.90;;;;;;10413880;28;20053;-66
2021/01/12 09:09:36;;;;;;;3.30;1.38;;;1.20;99.90;;;;;;10425031;28;20110;-68
2021/01/12 09:14:46;;;;;;;7.30;1.50;;;1.30;99.90;;;;;;10405071;28;20125;-67
2021/01/12 09:19:55;;;;;;;4.00;1.50;;;1.30;99.90;;;;;;10412030;28;20069;-67
2021/01/12 09:24:58;;;;;;;2.40;1.30;;;1.40;99.90;;;;;;10393236;28;20199;-68
2021/01/12 09:29:59;;;;;;;1.80;1.00;;;1.50;99.90;;;;;;10408756;28;20054;-68
2021/01/12 09:35:06;;;;;;;3.83;1.02;;;1.60;99.90;;;;;;10391146;28;20042;-66
2021/01/12 09:40:08;;;;;;;2.70;0.90;;;1.60;99.90;;;;;;10402456;28;20483;-68
2021/01/12 09:45:09;;;;;;;4.43;1.58;;;1.70;99.90;;;;;;10396840;28;20534;-67
2021/01/12 09:50:11;;;;;;;2.20;1.08;;;1.70;99.90;;;;;;10420346;28;20497;-68
2021/01/12 09:55:12;;;;;;;4.43;1.48;;;1.70;99.90;;;;;;10406355;28;20067;-67
2021/01/12 10:00:14;;;;;;;1.38;0.70;;;1.90;99.90;;;;;;10387444;28;20107;-67
2021/01/12 10:05:15;;;;;;;1.85;0.80;;;2.00;99.90;;;;;;10381723;28;20070;-68
2021/01/12 10:10:17;;;;;;;3.08;1.13;;;2.00;99.90;;;;;;10381026;28;20411;-67
2021/01/12 10:15:18;;;;;;;1.83;1.00;;;2.20;99.90;;;;;;10365334;28;20420;-67
2021/01/12 10:20:20;;;;;;;1.90;1.17;;;2.20;99.90;;;;;;10372403;28;20493;-67
2021/01/12 10:25:21;;;;;;;1.05;0.85;;;2.20;99.90;;;;;;10364801;28;20050;-67
2021/01/12 10:30:23;;;;;;;1.13;0.80;;;2.20;99.90;;;;;;10363948;28;20037;-67
2021/01/12 10:35:24;;;;;;;2.25;0.70;;;2.20;99.90;;;;;;10363616;28;20049;-67
2021/01/12 10:40:26;;;;;;;2.55;0.80;;;2.30;99.90;;;;;;10355834;28;20041;-68
2021/01/12 10:45:27;;;;;;;2.50;0.40;;;2.40;99.90;;;;;;10362404;28;20054;-67
2021/01/12 10:50:29;;;;;;;0.93;0.60;;;2.40;99.90;;;;;;10336289;28;20400;-68
2021/01/12 10:55:30;;;;;;;1.00;0.50;;;2.50;99.90;;;;;;10376755;28;20038;-69
2021/01/12 11:00:31;;;;;;;8.48;0.95;;;2.40;99.90;;;;;;10397529;28;20119;-68
2021/01/12 11:05:33;;;;;;;0.80;0.50;;;2.50;99.90;;;;;;10415596;28;20056;-67
2021/01/12 11:10:34;;;;;;;0.93;0.35;;;2.60;99.90;;;;;;10395176;28;20518;-67
2021/01/12 11:15:39;;;;;;;1.52;0.50;;;2.50;99.90;;;;;;10414211;28;20053;-64
2021/01/12 11:20:41;;;;;;;2.65;0.40;;;2.60;99.90;;;;;;10418514;28;20045;-67
2021/01/12 11:25:42;;;;;;;0.60;0.50;;;2.60;99.90;;;;;;10426750;28;20041;-66
2021/01/12 11:30:43;;;;;;;0.85;0.40;;;2.60;99.90;;;;;;10397612;28;20111;-65
2021/01/12 11:35:45;;;;;;;0.63;0.40;;;2.60;99.90;;;;;;10421682;28;20144;-66
2021/01/12 11:40:46;;;;;;;1.42;0.38;;;2.60;99.90;;;;;;10397723;28;20155;-67
2021/01/12 11:45:47;;;;;;;1.58;0.70;;;2.70;99.90;;;;;;10424030;28;20402;-67
2021/01/12 11:50:49;;;;;;;6.85;1.08;;;2.80;99.90;;;;;;10404624;28;20133;-66
2021/01/12 11:55:50;;;;;;;1.10;0.50;;;2.80;99.90;;;;;;10420812;28;20056;-66
2021/01/12 12:00:51;;;;;;;2.25;0.82;;;2.80;99.90;;;;;;10399283;28;20516;-66
2021/01/12 12:05:52;;;;;;;2.03;0.50;;;2.80;99.90;;;;;;10405758;28;20045;-67
2021/01/12 12:10:53;;;;;;;0.77;0.43;;;2.90;99.90;;;;;;10415576;28;20098;-67
2021/01/12 12:15:55;;;;;;;1.42;0.60;;;2.90;99.90;;;;;;10417097;28;20052;-67
2021/01/12 12:20:56;;;;;;;1.52;0.50;;;3.00;99.90;;;;;;10392232;28;20072;-67
2021/01/12 12:25:57;;;;;;;1.23;0.50;;;3.00;99.90;;;;;;10406854;28;20061;-67
2021/01/12 12:30:59;;;;;;;1.25;0.50;;;3.00;99.90;;;;;;10428917;28;20053;-66
2021/01/12 12:36:06;;;;;;;1.75;0.90;;;3.00;99.90;;;;;;10433209;28;20121;-68
2021/01/12 12:41:08;;;;;;;2.22;1.75;;;3.00;99.90;;;;;;10415840;28;20045;-67
2021/01/12 12:46:15;;;;;;;1.33;0.70;;;2.90;99.90;;;;;;10428566;28;20056;-67
2021/01/12 12:51:16;;;;;;;1.63;0.80;;;3.10;99.90;;;;;;10405893;28;20052;-68
2021/01/12 12:56:17;;;;;;;0.77;0.52;;;3.20;99.90;;;;;;10399113;28;20060;-67
2021/01/12 13:01:19;;;;;;;1.63;0.60;;;3.40;99.90;;;;;;10391721;28;20135;-68
2021/01/12 13:06:24;;;;;;;1.45;0.70;;;3.40;99.90;;;;;;10393241;28;20048;-68
2021/01/12 13:11:28;;;;;;;2.55;0.60;;;3.40;99.90;;;;;;10434221;28;20048;-69
2021/01/12 13:16:34;;;;;;;3.65;0.47;;;3.30;99.90;;;;;;10431044;28;20106;-68
2021/01/12 13:21:36;;;;;;;3.95;0.68;;;3.30;99.90;;;;;;10426585;28;20130;-68
2021/01/12 13:26:37;;;;;;;1.92;0.60;;;3.40;99.90;;;;;;10401636;28;20442;-67
2021/01/12 13:31:38;;;;;;;1.60;0.73;;;3.30;99.90;;;;;;10375944;28;20054;-67
2021/01/12 13:36:39;;;;;;;0.85;0.55;;;3.20;99.90;;;;;;10390832;28;20069;-67
2021/01/12 13:41:42;;;;;;;2.13;0.40;;;3.20;99.90;;;;;;10390338;28;20042;-67
2021/01/12 13:46:44;;;;;;;0.90;0.40;;;3.30;99.90;;;;;;10428853;28;20037;-67
2021/01/12 13:51:45;;;;;;;4.05;0.65;;;3.30;99.90;;;;;;10410092;28;20041;-67
2021/01/12 13:56:51;;;;;;;0.98;0.40;;;3.30;99.90;;;;;;10407645;28;20561;-68
2021/01/12 14:01:53;;;;;;;1.38;1.00;;;3.30;99.90;;;;;;10412453;28;20045;-68
2021/01/12 14:06:55;;;;;;;3.95;0.60;;;3.30;99.90;;;;;;10415978;28;20045;-68
2021/01/12 14:11:58;;;;;;;0.68;0.40;;;3.20;99.90;;;;;;10417048;28;23049;-68
2021/01/12 14:17:02;;;;;;;0.77;0.50;;;3.30;99.90;;;;;;10398264;28;20068;-68
2021/01/12 14:22:19;;;;;;;1.77;0.50;;;3.30;99.90;;;;;;10409462;28;20049;-67
2021/01/12 14:27:20;;;;;;;2.30;0.77;;;3.30;99.90;;;;;;10351421;28;20045;-66
2021/01/12 14:32:22;;;;;;;1.40;0.60;;;3.30;99.90;;;;;;10436954;28;20034;-67
2021/01/12 14:37:24;;;;;;;2.70;0.60;;;3.30;99.90;;;;;;10437438;28;20045;-66
2021/01/12 14:42:26;;;;;;;2.08;0.60;;;3.30;99.90;;;;;;10433838;28;20045;-66
2021/01/12 14:47:28;;;;;;;2.10;0.52;;;3.30;99.90;;;;;;10429802;28;20060;-66
2021/01/12 14:52:30;;;;;;;2.08;0.75;;;3.30;99.90;;;;;;10430023;28;20045;-66
2021/01/12 14:57:34;;;;;;;4.95;1.23;;;3.30;99.90;;;;;;10424198;28;20048;-66
2021/01/12 15:02:35;;;;;;;2.08;0.70;;;3.20;99.90;;;;;;10411915;28;20487;-65
2021/01/12 15:07:36;;;;;;;0.85;0.50;;;3.30;99.90;;;;;;10407714;28;20089;-64
2021/01/12 15:12:37;;;;;;;3.17;0.93;;;3.30;99.90;;;;;;10440144;28;20049;-65
2021/01/12 15:17:39;;;;;;;2.10;1.33;;;3.40;99.90;;;;;;10403246;28;20064;-63
2021/01/12 15:22:41;;;;;;;2.75;0.68;;;3.30;99.90;;;;;;10420231;28;20048;-64
2021/01/12 15:27:43;;;;;;;2.35;1.05;;;3.30;99.90;;;;;;10441764;28;20041;-64
2021/01/12 15:32:44;;;;;;;5.72;1.38;;;3.30;99.90;;;;;;10441325;28;20449;-64
2021/01/12 15:37:45;;;;;;;1.83;0.98;;;3.30;99.90;;;;;;10445025;28;21314;-65
2021/01/12 15:42:50;;;;;;;2.55;0.98;;;3.30;99.90;;;;;;10421356;28;20098;-65
2021/01/12 15:47:51;;;;;;;2.55;0.98;;;3.40;99.90;;;;;;10434660;28;20051;-64
2021/01/12 15:52:52;;;;;;;1.40;0.90;;;3.40;99.90;;;;;;10413351;28;20054;-65
2021/01/12 15:57:54;;;;;;;2.17;0.70;;;3.40;99.90;;;;;;10406491;28;20115;-64
2021/01/12 16:02:57;;;;;;;2.08;0.82;;;3.40;99.90;;;;;;10417737;28;20041;-66
2021/01/12 16:08:00;;;;;;;3.15;1.23;;;3.40;99.90;;;;;;10411184;28;20047;-66
2021/01/12 16:13:03;;;;;;;5.95;1.10;;;3.40;99.90;;;;;;10408302;28;20036;-66
2021/01/12 16:18:04;;;;;;;5.68;1.02;;;3.50;99.90;;;;;;10419249;28;20145;-66
2021/01/12 16:23:06;;;;;;;1.60;1.10;;;3.50;99.90;;;;;;10424141;28;20052;-66
2021/01/12 16:28:08;;;;;;;2.90;0.60;;;3.50;99.90;;;;;;10413505;28;20045;-67
2021/01/12 16:33:13;;;;;;;3.72;0.80;;;3.80;99.90;;;;;;10397235;28;20396;-67
2021/01/12 16:38:15;;;;;;;3.78;1.02;;;3.80;99.90;;;;;;10420348;28;20440;-67
2021/01/12 16:43:18;;;;;;;1.38;0.80;;;3.60;99.90;;;;;;10431507;28;20123;-67
2021/01/12 16:48:23;;;;;;;1.05;0.80;;;3.50;99.90;;;;;;10423660;28;20053;-65
2021/01/12 16:53:26;;;;;;;8.00;2.35;;;3.60;99.90;;;;;;10428610;28;20064;-66
2021/01/12 16:58:34;;;;;;;7.55;2.80;;;3.50;99.90;;;;;;10415297;28;20053;-66
2021/01/12 17:03:40;;;;;;;5.88;1.70;;;3.30;99.90;;;;;;10412564;28;20045;-66
2021/01/12 17:08:41;;;;;;;5.50;2.30;;;3.20;99.90;;;;;;10406109;28;20506;-67
2021/01/12 17:13:43;;;;;;;3.45;1.73;;;3.20;99.90;;;;;;10434162;28;20051;-66
2021/01/12 17:18:46;;;;;;;2.40;1.05;;;3.10;99.90;;;;;;10438323;28;20406;-67
2021/01/12 17:23:55;;;;;;;2.92;1.63;;;3.20;99.90;;;;;;10433318;28;20493;-69
2021/01/12 17:28:56;;;;;;;1.17;0.90;;;3.20;99.90;;;;;;10432036;28;20051;-68
2021/01/12 17:33:58;;;;;;;2.45;1.20;;;3.20;99.90;;;;;;10412054;28;20060;-68
2021/01/12 17:39:02;;;;;;;3.80;0.90;;;3.20;99.90;;;;;;10418022;28;20144;-69
2021/01/12 17:44:04;;;;;;;1.98;0.80;;;3.40;99.90;;;;;;10405964;28;20463;-69
2021/01/12 17:49:05;;;;;;;3.72;0.95;;;3.40;99.90;;;;;;10409230;28;20044;-70
2021/01/12 17:54:09;;;;;;;2.25;0.80;;;3.20;99.90;;;;;;10421105;28;20046;-63
2021/01/12 17:59:14;;;;;;;5.78;0.95;;;3.20;99.90;;;;;;10421108;28;20041;-63
2021/01/12 18:04:16;;;;;;;1.48;0.77;;;2.90;99.90;;;;;;10426981;28;20053;-63
2021/01/12 18:09:20;;;;;;;0.77;0.60;;;2.80;99.90;;;;;;10414415;28;20056;-60
2021/01/12 18:14:21;;;;;;;1.85;0.82;;;2.70;99.90;;;;;;10417900;28;20064;-59
2021/01/12 18:19:22;;;;;;;1.67;1.00;;;2.70;99.90;;;;;;10411925;28;20057;-60
2021/01/12 18:24:24;;;;;;;2.83;1.02;;;2.60;99.90;;;;;;10424878;28;20048;-62
2021/01/12 18:29:26;;;;;;;5.75;0.90;;;2.60;99.90;;;;;;10420019;28;20453;-62
2021/01/12 18:34:28;;;;;;;1.63;0.82;;;2.50;99.90;;;;;;10409511;28;20342;-62
2021/01/12 18:39:30;;;;;;;3.60;0.85;;;2.70;99.90;;;;;;10410878;28;20430;-62
2021/01/12 18:44:32;;;;;;;5.57;0.60;;;2.70;99.90;;;;;;10395599;28;20037;-60
2021/01/12 18:49:33;;;;;;;4.10;0.75;;;2.50;99.90;;;;;;10410687;28;20076;-67
2021/01/12 18:54:36;;;;;;;5.68;0.82;;;2.40;99.90;;;;;;10400065;28;20048;-67
2021/01/12 18:59:38;;;;;;;3.25;1.02;;;2.50;99.90;;;;;;10429838;28;20045;-67
2021/01/12 19:04:39;;;;;;;4.43;1.10;;;2.60;99.90;;;;;;10434403;28;20134;-67
2021/01/12 19:09:41;;;;;;;3.53;1.02;;;2.70;99.90;;;;;;10429485;28;20053;-67
2021/01/12 19:14:45;;;;;;;1.83;0.55;;;2.70;99.90;;;;;;10414673;28;20049;-68
2021/01/12 19:19:46;;;;;;;1.83;0.55;;;2.60;99.90;;;;;;10423690;28;20061;-66
2021/01/12 19:24:50;;;;;;;0.70;0.40;;;2.70;99.90;;;;;;10380472;28;20048;-66
2021/01/12 19:29:52;;;;;;;4.18;0.40;;;2.70;99.90;;;;;;10382271;28;20040;-66
2021/01/12 19:34:55;;;;;;;4.82;0.73;;;2.70;99.90;;;;;;10397756;28;20113;-68
2021/01/12 19:39:56;;;;;;;3.22;0.80;;;2.70;99.90;;;;;;10400945;28;20415;-67
2021/01/12 19:44:58;;;;;;;1.42;0.60;;;2.90;99.90;;;;;;10413980;28;20056;-67
2021/01/12 19:49:59;;;;;;;4.32;0.98;;;2.90;99.90;;;;;;10413427;28;20072;-68
2021/01/12 19:55:00;;;;;;;7.40;1.20;;;3.00;99.90;;;;;;10434305;28;20179;-66
2021/01/12 20:00:04;;;;;;;7.50;1.00;;;2.90;99.90;;;;;;10400697;28;20050;-66
2021/01/12 20:05:06;;;;;;;7.15;2.22;;;2.90;99.90;;;;;;10406478;28;20406;-67
2021/01/12 20:10:08;;;;;;;4.70;1.63;;;2.80;99.90;;;;;;10434170;28;20047;-66
2021/01/12 20:15:17;;;;;;;7.00;1.45;;;2.60;99.90;;;;;;10416120;28;20040;-67
2021/01/12 20:20:21;;;;;;;5.10;1.73;;;2.60;99.90;;;;;;10437271;28;20064;-66
2021/01/12 20:25:23;;;;;;;4.55;1.30;;;2.70;99.90;;;;;;10434052;28;20051;-67
2021/01/12 20:30:25;;;;;;;3.30;1.30;;;2.60;99.90;;;;;;10433042;28;20063;-67
2021/01/12 20:35:26;;;;;;;12.20;1.92;;;2.70;99.90;;;;;;10417880;28;20053;-66
2021/01/12 20:40:28;;;;;;;9.77;2.20;;;2.70;99.90;;;;;;10429700;28;22734;-66
2021/01/12 20:45:34;;;;;;;9.02;1.98;;;2.90;99.90;;;;;;10407811;28;20052;-67
2021/01/12 20:50:40;;;;;;;9.90;2.33;;;2.70;99.90;;;;;;10399479;28;20053;-66
2021/01/12 20:55:42;;;;;;;8.25;2.28;;;2.90;99.90;;;;;;10434388;28;20060;-67
2021/01/12 21:00:44;;;;;;;6.03;2.40;;;2.80;99.90;;;;;;10414344;28;20045;-66
2021/01/12 21:05:47;;;;;;;11.20;2.33;;;2.60;99.90;;;;;;10433873;28;20101;-67
2021/01/12 21:10:51;;;;;;;5.30;1.95;;;2.70;99.90;;;;;;10437974;28;20061;-67
2021/01/12 21:15:53;;;;;;;5.25;2.25;;;2.50;99.90;;;;;;10424202;28;20105;-67
2021/01/12 21:20:54;;;;;;;7.40;3.10;;;2.50;99.90;;;;;;10434309;28;20040;-67
2021/01/12 21:25:55;;;;;;;7.60;2.83;;;2.40;99.90;;;;;;10432239;28;20041;-67
2021/01/12 21:30:57;;;;;;;8.10;3.22;;;2.20;99.90;;;;;;10393089;28;20126;-66
2021/01/12 21:35:58;;;;;;;12.05;3.13;;;2.10;99.90;;;;;;10402142;28;20049;-66
2021/01/12 21:40:59;;;;;;;7.18;3.10;;;2.10;99.90;;;;;;10409281;28;20049;-67
2021/01/12 21:46:01;;;;;;;8.55;4.47;;;2.10;99.90;;;;;;10429296;28;20045;-67
2021/01/12 21:51:02;;;;;;;8.90;2.90;;;2.00;99.90;;;;;;10429454;28;20053;-65
2021/01/12 21:56:08;;;;;;;11.80;3.17;;;1.90;99.90;;;;;;10428694;28;20041;-65
2021/01/12 22:01:09;;;;;;;7.47;2.95;;;1.90;99.90;;;;;;10428875;28;20049;-65
2021/01/12 22:06:11;;;;;;;5.97;2.67;;;2.00;99.90;;;;;;10430342;28;20049;-65
2021/01/12 22:11:12;;;;;;;4.63;1.52;;;2.10;99.90;;;;;;10429828;28;20044;-66
2021/01/12 22:16:13;;;;;;;10.73;2.17;;;2.30;99.90;;;;;;10430610;28;20053;-68
2021/01/12 22:21:14;;;;;;;8.30;2.10;;;2.20;99.90;;;;;;10422131;28;20041;-66
2021/01/12 22:26:19;;;;;;;9.35;1.98;;;2.20;99.90;;;;;;10425025;28;20045;-67
2021/01/12 22:31:20;;;;;;;3.85;1.40;;;2.20;99.90;;;;;;10405254;28;20395;-66
2021/01/12 22:36:24;;;;;;;8.95;1.85;;;2.10;99.90;;;;;;10403772;28;20041;-67
2021/01/12 22:41:26;;;;;;;7.65;2.10;;;2.10;99.90;;;;;;10394168;28;20041;-67
2021/01/12 22:46:27;;;;;;;7.75;2.15;;;2.20;99.90;;;;;;10416812;28;20044;-67
2021/01/12 22:51:33;;;;;;;4.10;1.77;;;2.20;99.90;;;;;;10395331;28;20080;-66
2021/01/12 22:56:34;;;;;;;8.60;2.15;;;2.30;99.90;;;;;;10425311;28;20134;-68
2021/01/12 23:01:43;;;;;;;4.60;1.92;;;2.20;99.90;;;;;;10433862;28;20048;-68
2021/01/12 23:06:44;;;;;;;7.53;2.05;;;2.20;99.90;;;;;;10419197;28;20045;-67
2021/01/12 23:11:47;;;;;;;8.20;1.60;;;2.10;99.90;;;;;;10423939;28;20064;-66
2021/01/12 23:16:49;;;;;;;9.70;2.33;;;2.20;99.90;;;;;;10435625;28;20045;-67
2021/01/12 23:21:54;;;;;;;5.72;1.50;;;2.20;99.90;;;;;;10431189;28;20494;-67
2021/01/12 23:26:56;;;;;;;12.43;2.00;;;2.10;99.90;;;;;;10429320;28;20040;-67
2021/01/12 23:31:57;;;;;;;7.50;1.85;;;2.00;99.90;;;;;;10406386;28;20048;-67
2021/01/12 23:37:00;;;;;;;9.93;1.52;;;2.10;99.90;;;;;;10420210;28;20041;-67
2021/01/12 23:42:02;;;;;;;6.03;2.15;;;2.10;99.90;;;;;;10422547;28;20048;-67
2021/01/12 23:47:07;;;;;;;5.72;1.60;;;2.00;99.90;;;;;;10402125;28;20123;-66
2021/01/12 23:52:08;;;;;;;11.15;2.60;;;2.20;99.90;;;;;;10423932;28;20076;-67
2021/01/12 23:57:10;;;;;;;7.40;1.75;;;2.20;99.90;;;;;;10399354;28;20442;-67
